Time;durP1;ratioP1;P1;durP2;ratioP2;P2;SDS_P1;SDS_P2;PMS_P1;PMS_P2;Temp;Humidity;BMP_temperature;BMP_pressure;BME280_temperature;BME280_humidity;BME280_pressure;Samples;Min_cycle;Max_cycle;Signal;HPM_P1;HPM_P2
2021/05/25 00:00:36;;;;;;;7.07;4.35;;;11.30;95.80;;;;;;6182005;23;20005;-66
2021/05/25 00:03:06;;;;;;;7.28;5.13;;;11.20;95.70;;;;;;6183239;23;20430;-66
2021/05/25 00:05:32;;;;;;;8.27;5.32;;;11.20;95.70;;;;;;6183059;23;20084;-65
2021/05/25 00:07:58;;;;;;;6.68;4.85;;;11.30;95.90;;;;;;6181152;23;20381;-65
2021/05/25 00:10:26;;;;;;;6.05;5.05;;;11.30;95.90;;;;;;6183442;23;20013;-65
2021/05/25 00:12:51;;;;;;;7.43;5.97;;;11.20;95.90;;;;;;6155654;23;20000;-66
2021/05/25 00:15:20;;;;;;;6.22;5.63;;;11.30;95.90;;;;;;6156744;23;20009;-64
2021/05/25 00:17:46;;;;;;;6.20;5.60;;;11.20;95.90;;;;;;6182963;23;20020;-66
2021/05/25 00:20:13;;;;;;;7.53;5.97;;;11.20;95.90;;;;;;6182476;23;20395;-65
2021/05/25 00:22:39;;;;;;;9.07;6.40;;;11.20;95.90;;;;;;6183368;23;20001;-65
2021/05/25 00:25:07;;;;;;;7.38;6.05;;;11.30;96.00;;;;;;6182694;23;20027;-65
2021/05/25 00:27:33;;;;;;;7.75;6.05;;;11.20;95.90;;;;;;6181969;23;20453;-65
2021/05/25 00:29:59;;;;;;;8.65;6.47;;;11.20;95.90;;;;;;6182946;23;20005;-65
2021/05/25 00:32:24;;;;;;;7.43;6.32;;;11.20;95.90;;;;;;6157164;23;20008;-65
2021/05/25 00:34:50;;;;;;;7.32;6.30;;;11.10;95.90;;;;;;6181873;23;20011;-66
2021/05/25 00:37:16;;;;;;;8.10;6.47;;;11.10;95.90;;;;;;6183091;23;20418;-64
2021/05/25 00:39:42;;;;;;;8.23;6.57;;;11.10;95.90;;;;;;6182838;23;20419;-64
2021/05/25 00:42:08;;;;;;;10.02;6.65;;;11.00;96.00;;;;;;6182224;23;20011;-64
2021/05/25 00:44:33;;;;;;;8.50;6.18;;;11.00;96.10;;;;;;6182632;23;20025;-65
2021/05/25 00:46:59;;;;;;;12.90;7.45;;;11.00;96.10;;;;;;6183064;23;20076;-65
2021/05/25 00:49:24;;;;;;;8.32;7.38;;;11.00;96.00;;;;;;6182435;23;20001;-66
2021/05/25 00:51:50;;;;;;;8.15;7.00;;;11.00;96.00;;;;;;6182793;23;20621;-65
2021/05/25 00:54:16;;;;;;;8.18;6.93;;;11.00;96.10;;;;;;6182818;23;20378;-65
2021/05/25 00:56:41;;;;;;;10.45;7.15;;;10.90;96.10;;;;;;6181948;23;20036;-65
2021/05/25 00:59:07;;;;;;;15.40;7.20;;;10.90;96.10;;;;;;6183067;23;20296;-65
2021/05/25 01:01:32;;;;;;;9.20;6.85;;;10.90;96.20;;;;;;6182952;23;20005;-64
2021/05/25 01:03:58;;;;;;;8.38;6.65;;;10.90;96.10;;;;;;6182697;23;20005;-66
2021/05/25 01:06:24;;;;;;;9.50;7.45;;;10.90;96.10;;;;;;6183231;23;20446;-65
2021/05/25 01:08:49;;;;;;;8.45;6.38;;;11.00;96.20;;;;;;6156371;23;20005;-65
2021/05/25 01:11:17;;;;;;;8.35;6.50;;;10.90;96.10;;;;;;6182342;23;20017;-64
2021/05/25 01:13:47;;;;;;;9.82;5.80;;;11.00;96.00;;;;;;6182713;23;20024;-65
2021/05/25 01:16:14;;;;;;;7.95;6.00;;;10.90;95.90;;;;;;6182070;23;20001;-66
2021/05/25 01:18:40;;;;;;;7.95;5.22;;;10.90;95.90;;;;;;6182851;23;20410;-65
2021/05/25 01:21:08;;;;;;;8.30;5.75;;;10.90;95.80;;;;;;6182942;23;20005;-66
2021/05/25 01:23:35;;;;;;;6.25;5.28;;;10.90;95.90;;;;;;6181822;23;20426;-65
2021/05/25 01:26:01;;;;;;;6.22;5.20;;;10.90;95.90;;;;;;6156474;23;20471;-66
2021/05/25 01:28:27;;;;;;;6.07;4.63;;;10.90;96.00;;;;;;6183164;23;20118;-66
2021/05/25 01:30:54;;;;;;;8.32;4.95;;;10.90;96.00;;;;;;6181791;23;20017;-67
2021/05/25 01:33:22;;;;;;;8.80;5.18;;;10.80;95.90;;;;;;6182982;23;20087;-66
2021/05/25 01:35:48;;;;;;;8.45;4.70;;;10.80;96.00;;;;;;6182541;23;20076;-66
2021/05/25 01:38:14;;;;;;;6.93;4.25;;;10.80;96.30;;;;;;6182147;23;20037;-65
2021/05/25 01:40:40;;;;;;;5.72;4.28;;;10.80;95.80;;;;;;6182872;23;20047;-65
2021/05/25 01:43:07;;;;;;;8.05;4.40;;;10.70;95.70;;;;;;6182866;23;20024;-65
2021/05/25 01:45:33;;;;;;;7.80;4.32;;;10.70;95.80;;;;;;6181920;23;20028;-66
2021/05/25 01:48:03;;;;;;;7.38;4.22;;;10.60;95.70;;;;;;6182814;23;20007;-66
2021/05/25 01:50:29;;;;;;;7.32;3.75;;;10.60;95.70;;;;;;6182558;23;20036;-65
2021/05/25 01:53:02;;;;;;;5.15;3.70;;;10.50;95.80;;;;;;6182828;23;19997;-65
2021/05/25 01:55:40;;;;;;;8.45;4.07;;;10.50;95.70;;;;;;6184741;23;20008;-67
2021/05/25 01:58:09;;;;;;;6.28;4.07;;;10.50;95.90;;;;;;6184516;23;20353;-66
2021/05/25 02:00:36;;;;;;;4.50;3.50;;;10.50;95.90;;;;;;6183655;23;20092;-67
2021/05/25 02:03:03;;;;;;;6.45;3.58;;;10.40;95.80;;;;;;6184812;23;20064;-66
2021/05/25 02:05:29;;;;;;;6.40;3.10;;;10.50;95.80;;;;;;6183925;23;20414;-67
2021/05/25 02:07:55;;;;;;;4.72;3.20;;;10.40;95.70;;;;;;6184537;23;20020;-66
2021/05/25 02:11:01;;;;;;;6.75;3.38;;;10.40;95.60;;;;;;6184828;23;20013;-65
2021/05/25 02:13:32;;;;;;;4.13;3.17;;;10.40;95.70;;;;;;6165030;23;20011;-66
2021/05/25 02:16:00;;;;;;;4.00;3.03;;;10.30;95.70;;;;;;6184507;23;20068;-65
2021/05/25 02:18:28;;;;;;;5.57;2.78;;;10.40;95.80;;;;;;6184724;23;20149;-65
2021/05/25 02:20:59;;;;;;;4.05;2.60;;;10.40;95.80;;;;;;6183302;23;19997;-66
2021/05/25 02:23:26;;;;;;;5.97;2.80;;;10.40;95.80;;;;;;6158199;23;20346;-65
2021/05/25 02:25:51;;;;;;;4.95;2.65;;;10.40;95.60;;;;;;6184001;23;20059;-65
2021/05/25 02:28:18;;;;;;;4.22;3.08;;;10.30;95.50;;;;;;6183369;23;20009;-64
2021/05/25 02:30:44;;;;;;;5.40;2.47;;;10.30;95.50;;;;;;6184163;23;20016;-65
2021/05/25 02:33:13;;;;;;;5.35;2.90;;;10.20;95.20;;;;;;6184391;23;20007;-66
2021/05/25 02:35:40;;;;;;;6.30;2.80;;;10.10;95.20;;;;;;6183075;23;20068;-65
2021/05/25 02:38:09;;;;;;;8.18;2.72;;;10.10;95.20;;;;;;6184366;23;20005;-65
2021/05/25 02:40:35;;;;;;;3.05;2.40;;;10.10;95.30;;;;;;6183134;23;19997;-65
2021/05/25 02:43:02;;;;;;;5.35;2.70;;;10.00;95.30;;;;;;6184065;23;20015;-66
2021/05/25 02:45:28;;;;;;;3.50;2.67;;;10.10;95.60;;;;;;6184265;23;19997;-66
2021/05/25 02:47:55;;;;;;;4.63;2.85;;;10.10;95.70;;;;;;6183273;23;20016;-66
2021/05/25 02:50:21;;;;;;;5.82;3.10;;;10.10;95.60;;;;;;6184393;23;20088;-66
2021/05/25 02:52:49;;;;;;;5.78;3.20;;;10.10;95.60;;;;;;6183900;23;20425;-65
2021/05/25 02:55:18;;;;;;;5.63;2.88;;;10.10;95.70;;;;;;6183142;23;20012;-66
2021/05/25 02:57:43;;;;;;;7.80;2.75;;;10.10;95.60;;;;;;6183785;23;20004;-65
2021/05/25 03:00:13;;;;;;;7.47;3.00;;;10.00;95.60;;;;;;6184098;23;20005;-66
2021/05/25 03:02:38;;;;;;;3.80;2.60;;;9.90;95.50;;;;;;6132146;23;20442;-64
2021/05/25 03:05:06;;;;;;;4.68;2.80;;;9.90;95.60;;;;;;6183250;23;20008;-66
2021/05/25 03:07:32;;;;;;;5.40;3.10;;;9.80;95.40;;;;;;6183565;23;20009;-65
2021/05/25 03:09:57;;;;;;;5.55;2.65;;;9.70;95.30;;;;;;6183076;23;20017;-65
2021/05/25 03:12:23;;;;;;;5.35;2.90;;;9.70;95.50;;;;;;6183951;23;19997;-66
2021/05/25 03:14:49;;;;;;;5.03;2.95;;;9.60;95.50;;;;;;6183521;23;20012;-65
2021/05/25 03:17:14;;;;;;;5.93;3.50;;;9.50;95.60;;;;;;6157145;23;20005;-66
2021/05/25 03:19:40;;;;;;;4.97;3.28;;;9.40;95.70;;;;;;6183971;23;20076;-66
2021/05/25 03:22:06;;;;;;;6.50;3.22;;;9.40;95.90;;;;;;6157365;23;20440;-66
2021/05/25 03:24:31;;;;;;;4.80;2.70;;;9.40;95.90;;;;;;6182648;23;20021;-66
2021/05/25 03:26:57;;;;;;;5.85;2.90;;;9.40;96.00;;;;;;6183402;23;20442;-65
2021/05/25 03:29:22;;;;;;;3.80;2.88;;;9.30;96.10;;;;;;6184148;23;20131;-65
2021/05/25 03:31:48;;;;;;;6.97;3.22;;;9.30;96.30;;;;;;6156255;23;20013;-65
2021/05/25 03:34:14;;;;;;;4.82;2.95;;;9.40;96.20;;;;;;6183550;23;19997;-64
2021/05/25 03:36:39;;;;;;;5.82;3.38;;;9.40;96.10;;;;;;6156807;23;20081;-64
2021/05/25 03:39:06;;;;;;;8.25;3.15;;;9.40;96.10;;;;;;6182785;23;20024;-66
2021/05/25 03:41:32;;;;;;;5.22;3.28;;;9.50;96.10;;;;;;6183444;23;20005;-66
2021/05/25 03:43:59;;;;;;;4.47;3.10;;;9.40;96.20;;;;;;6182670;23;20001;-65
2021/05/25 03:46:24;;;;;;;5.38;3.05;;;9.40;96.10;;;;;;6183924;23;20001;-66
2021/05/25 03:48:50;;;;;;;6.65;3.45;;;9.40;96.10;;;;;;6183474;23;20085;-66
2021/05/25 03:51:15;;;;;;;6.30;3.25;;;9.30;96.10;;;;;;6182789;23;20433;-66
2021/05/25 03:53:41;;;;;;;8.13;3.53;;;9.40;96.10;;;;;;6156787;23;20088;-67
2021/05/25 03:58:51;;;;;;;5.00;3.13;;;9.50;96.20;;;;;;6192839;23;20032;-66
2021/05/25 04:01:23;;;;;;;6.22;3.30;;;9.50;96.10;;;;;;6183338;23;20005;-65
2021/05/25 04:03:51;;;;;;;7.35;3.72;;;9.50;95.90;;;;;;6156815;23;20008;-66
2021/05/25 04:06:18;;;;;;;4.60;3.10;;;9.60;96.00;;;;;;6182907;23;20008;-66
2021/05/25 04:08:44;;;;;;;9.18;3.95;;;9.60;96.00;;;;;;6183262;23;20088;-65
2021/05/25 04:11:10;;;;;;;10.23;4.22;;;9.70;96.00;;;;;;6183099;23;20048;-64
2021/05/25 04:13:35;;;;;;;5.75;3.47;;;9.70;96.00;;;;;;6182393;23;20131;-65
2021/05/25 04:16:02;;;;;;;5.25;3.55;;;9.80;95.90;;;;;;6183142;23;20005;-65
2021/05/25 04:18:27;;;;;;;7.30;3.92;;;9.80;95.90;;;;;;6183606;23;20501;-65
2021/05/25 04:20:53;;;;;;;6.07;3.55;;;9.80;95.80;;;;;;6182276;23;20088;-65
2021/05/25 04:23:19;;;;;;;7.43;3.80;;;9.90;95.80;;;;;;6156590;23;20007;-65
2021/05/25 04:25:45;;;;;;;6.40;3.58;;;9.90;95.60;;;;;;6156319;23;20001;-66
2021/05/25 04:28:10;;;;;;;5.75;3.25;;;10.00;95.60;;;;;;6156222;23;20001;-65
2021/05/25 04:30:36;;;;;;;6.03;3.72;;;9.90;95.50;;;;;;6156354;23;20017;-65
2021/05/25 04:33:03;;;;;;;6.38;4.15;;;9.90;95.40;;;;;;6182387;23;20128;-65
2021/05/25 04:35:29;;;;;;;5.72;3.45;;;9.90;95.30;;;;;;6156623;23;20012;-66
2021/05/25 04:37:58;;;;;;;10.93;3.88;;;9.90;95.70;;;;;;6182961;23;20008;-66
2021/05/25 04:40:24;;;;;;;5.43;3.83;;;9.90;95.50;;;;;;6182662;23;20489;-67
2021/05/25 04:42:50;;;;;;;4.28;3.83;;;9.90;95.50;;;;;;6182772;23;19997;-66
2021/05/25 04:45:16;;;;;;;8.30;4.68;;;9.90;95.60;;;;;;6183113;23;20009;-65
2021/05/25 04:47:41;;;;;;;7.25;4.40;;;10.00;95.60;;;;;;6182151;23;20430;-65
2021/05/25 04:50:09;;;;;;;7.20;4.75;;;10.00;95.60;;;;;;6183224;23;20012;-65
2021/05/25 04:52:36;;;;;;;6.97;5.05;;;10.10;95.50;;;;;;6182769;23;20028;-65
2021/05/25 04:55:03;;;;;;;6.13;4.97;;;10.10;95.50;;;;;;6155825;23;19997;-67
2021/05/25 04:57:30;;;;;;;7.25;4.70;;;10.20;95.30;;;;;;6183164;23;20453;-67
2021/05/25 04:59:55;;;;;;;6.60;5.30;;;10.20;95.20;;;;;;6182846;23;20009;-66
2021/05/25 05:02:21;;;;;;;11.48;5.22;;;10.30;95.00;;;;;;6181864;23;20002;-65
2021/05/25 05:04:47;;;;;;;5.22;4.68;;;10.40;95.00;;;;;;6155177;23;20083;-64
2021/05/25 05:07:12;;;;;;;8.90;5.40;;;10.40;94.90;;;;;;6182616;23;19998;-66
2021/05/25 05:09:38;;;;;;;7.25;5.20;;;10.40;94.90;;;;;;6155150;23;20012;-65
2021/05/25 05:12:04;;;;;;;7.55;5.43;;;10.40;94.80;;;;;;6179548;23;20032;-66
2021/05/25 05:14:31;;;;;;;7.32;4.78;;;10.50;94.70;;;;;;6180328;23;20084;-67
2021/05/25 05:16:56;;;;;;;6.13;4.85;;;10.50;94.60;;;;;;6180114;23;20322;-65
2021/05/25 05:19:22;;;;;;;5.45;4.68;;;10.40;94.40;;;;;;6181285;23;20469;-66
2021/05/25 05:21:47;;;;;;;6.88;4.72;;;10.40;94.50;;;;;;6181149;23;19997;-67
2021/05/25 05:24:13;;;;;;;7.18;5.45;;;10.40;94.50;;;;;;6180448;23;20019;-69
2021/05/25 05:26:39;;;;;;;9.93;4.93;;;10.40;94.60;;;;;;6181701;23;20001;-68
2021/05/25 05:29:04;;;;;;;8.02;4.60;;;10.40;94.70;;;;;;6183768;23;20005;-68
2021/05/25 05:31:30;;;;;;;5.00;4.38;;;10.50;94.60;;;;;;6182720;23;20344;-69
2021/05/25 05:33:56;;;;;;;8.27;4.93;;;10.50;94.50;;;;;;6184327;23;20063;-68
2021/05/25 05:36:22;;;;;;;7.43;4.88;;;10.60;94.50;;;;;;6156370;23;20028;-68
2021/05/25 05:38:47;;;;;;;10.20;5.50;;;10.70;94.70;;;;;;6183925;23;20005;-67
2021/05/25 05:41:14;;;;;;;6.35;5.20;;;10.80;94.70;;;;;;6183184;23;20005;-67
2021/05/25 05:43:41;;;;;;;7.50;4.80;;;11.00;94.40;;;;;;6183361;23;20334;-68
2021/05/25 05:46:06;;;;;;;6.20;4.35;;;11.00;94.30;;;;;;6184603;23;20005;-66
2021/05/25 05:48:32;;;;;;;7.55;4.78;;;11.10;94.10;;;;;;6183191;23;20005;-68
2021/05/25 05:50:58;;;;;;;9.27;6.18;;;11.20;94.10;;;;;;6183204;23;20549;-66
2021/05/25 05:53:24;;;;;;;7.53;5.30;;;11.20;94.00;;;;;;6184866;23;19997;-69
2021/05/25 05:55:50;;;;;;;6.47;4.88;;;11.30;93.90;;;;;;6183431;23;20012;-63
2021/05/25 05:58:16;;;;;;;5.43;4.93;;;11.40;93.80;;;;;;6182584;23;20001;-67
2021/05/25 06:00:42;;;;;;;9.27;6.72;;;11.40;93.40;;;;;;6183614;23;20005;-64
2021/05/25 06:03:11;;;;;;;6.22;5.43;;;11.40;93.20;;;;;;6157952;23;19997;-70
2021/05/25 06:05:37;;;;;;;8.80;5.72;;;11.40;93.40;;;;;;6182224;23;20009;-66
2021/05/25 06:08:04;;;;;;;7.05;6.10;;;11.50;93.50;;;;;;6184234;23;20009;-66
2021/05/25 06:10:31;;;;;;;6.35;5.65;;;11.50;93.20;;;;;;6183238;23;20016;-70
2021/05/25 06:12:57;;;;;;;6.80;5.90;;;11.40;93.00;;;;;;6156208;23;20035;-70
2021/05/25 06:15:23;;;;;;;7.35;6.65;;;11.40;93.00;;;;;;6183362;23;20001;-70
2021/05/25 06:17:48;;;;;;;7.35;6.05;;;11.40;93.00;;;;;;6182906;23;20005;-69
2021/05/25 06:20:14;;;;;;;7.80;6.47;;;11.30;92.60;;;;;;6156780;23;20367;-68
2021/05/25 06:22:40;;;;;;;6.95;6.18;;;11.30;92.50;;;;;;6183045;23;19997;-68
2021/05/25 06:25:08;;;;;;;8.50;6.03;;;11.30;92.60;;;;;;6157245;23;20024;-66
2021/05/25 06:27:36;;;;;;;7.28;6.22;;;11.30;92.50;;;;;;6182993;23;20422;-65
2021/05/25 06:30:03;;;;;;;7.75;6.28;;;11.30;92.20;;;;;;6183978;23;20005;-67
2021/05/25 06:32:29;;;;;;;6.97;6.15;;;11.30;92.50;;;;;;6183483;23;20011;-68
2021/05/25 06:34:54;;;;;;;8.98;6.70;;;11.30;92.50;;;;;;6183262;23;20072;-64
2021/05/25 06:37:20;;;;;;;6.78;6.18;;;11.40;92.60;;;;;;6183830;23;20311;-67
2021/05/25 06:39:45;;;;;;;7.80;7.05;;;11.40;92.50;;;;;;6182917;23;20005;-64
2021/05/25 06:42:11;;;;;;;7.55;6.32;;;11.50;92.60;;;;;;6184127;23;20001;-64
2021/05/25 06:44:38;;;;;;;7.72;6.30;;;11.50;92.50;;;;;;6183692;23;20083;-65
2021/05/25 06:47:04;;;;;;;8.02;6.68;;;11.50;92.00;;;;;;6183301;23;20008;-66
2021/05/25 06:49:29;;;;;;;7.22;6.53;;;11.50;92.10;;;;;;6184040;23;20001;-65
2021/05/25 06:51:55;;;;;;;9.07;6.55;;;11.60;92.10;;;;;;6183499;23;20096;-66
2021/05/25 06:54:21;;;;;;;7.53;6.78;;;11.60;91.70;;;;;;6183099;23;19997;-66
2021/05/25 06:56:46;;;;;;;7.32;6.63;;;11.70;91.90;;;;;;6157404;23;20001;-65
2021/05/25 06:59:13;;;;;;;6.22;5.72;;;11.70;91.70;;;;;;6183875;23;20067;-65
2021/05/25 07:01:38;;;;;;;8.32;7.55;;;11.70;91.50;;;;;;6182818;23;20432;-66
2021/05/25 07:04:04;;;;;;;8.95;7.22;;;11.70;91.50;;;;;;6183723;23;20083;-64
2021/05/25 07:06:29;;;;;;;7.05;6.43;;;11.70;91.80;;;;;;6184324;23;20005;-66
2021/05/25 07:08:55;;;;;;;10.40;8.10;;;11.70;91.90;;;;;;6156210;23;20013;-64
2021/05/25 07:11:21;;;;;;;9.63;7.88;;;11.70;91.90;;;;;;6183974;23;20422;-64
2021/05/25 07:13:47;;;;;;;9.73;8.82;;;11.90;92.10;;;;;;6183382;23;20545;-64
2021/05/25 07:16:13;;;;;;;10.98;8.10;;;12.00;91.70;;;;;;6183069;23;20419;-64
2021/05/25 07:18:39;;;;;;;8.82;7.88;;;12.20;91.70;;;;;;6183883;23;19997;-64
2021/05/25 07:21:05;;;;;;;9.85;7.93;;;12.40;91.10;;;;;;6183688;23;20005;-64
2021/05/25 07:23:30;;;;;;;8.70;7.80;;;12.40;91.10;;;;;;6182430;23;20020;-63
2021/05/25 07:25:56;;;;;;;9.73;7.80;;;12.50;91.00;;;;;;6183539;23;20008;-64
2021/05/25 07:28:21;;;;;;;9.88;7.22;;;12.60;90.90;;;;;;6183757;23;20001;-64
2021/05/25 07:30:48;;;;;;;9.35;8.55;;;12.70;90.50;;;;;;6182335;23;20047;-66
2021/05/25 07:33:14;;;;;;;9.48;7.93;;;12.60;90.50;;;;;;6183791;23;20063;-66
2021/05/25 07:35:40;;;;;;;11.40;8.52;;;12.60;90.60;;;;;;6183373;23;20063;-66
2021/05/25 07:38:05;;;;;;;8.80;8.02;;;12.50;90.50;;;;;;6182955;23;20037;-66
2021/05/25 07:40:31;;;;;;;9.32;8.43;;;12.50;90.70;;;;;;6183359;23;20009;-65
2021/05/25 07:42:57;;;;;;;9.95;8.98;;;12.40;90.80;;;;;;6182556;23;19997;-65
2021/05/25 07:45:22;;;;;;;9.10;8.20;;;12.40;90.90;;;;;;6183579;23;20453;-66
2021/05/25 07:47:48;;;;;;;10.13;8.50;;;12.50;91.20;;;;;;6183133;23;20008;-65
2021/05/25 07:50:15;;;;;;;8.70;7.90;;;12.50;91.00;;;;;;6182274;23;20005;-64
2021/05/25 07:52:45;;;;;;;9.07;6.75;;;12.70;90.80;;;;;;6183119;23;20005;-65
2021/05/25 07:55:11;;;;;;;8.02;7.30;;;12.70;90.40;;;;;;6157121;23;20092;-65
2021/05/25 07:57:38;;;;;;;9.00;7.43;;;12.70;90.30;;;;;;6182545;23;20016;-65
2021/05/25 08:00:06;;;;;;;8.95;6.85;;;12.70;90.20;;;;;;6183469;23;20005;-64
2021/05/25 08:02:31;;;;;;;7.70;6.90;;;12.70;90.20;;;;;;6183150;23;20072;-65
2021/05/25 08:04:57;;;;;;;6.90;6.30;;;12.80;90.40;;;;;;6156010;23;20418;-65
2021/05/25 08:07:22;;;;;;;7.20;6.47;;;13.00;90.50;;;;;;6183623;23;19998;-65
2021/05/25 08:09:48;;;;;;;7.97;6.40;;;13.20;90.00;;;;;;6156648;23;20041;-67
2021/05/25 08:12:13;;;;;;;7.45;6.78;;;13.40;89.90;;;;;;6182550;23;20005;-66
2021/05/25 08:14:39;;;;;;;8.48;6.43;;;13.50;90.00;;;;;;6182566;23;20007;-64
2021/05/25 08:17:16;;;;;;;6.65;5.72;;;13.70;90.00;;;;;;6183146;23;20048;-64
2021/05/25 08:19:43;;;;;;;6.65;5.32;;;13.80;89.50;;;;;;6182190;23;20001;-64
2021/05/25 08:22:08;;;;;;;5.70;5.20;;;13.80;89.00;;;;;;6183215;23;20490;-65
2021/05/25 08:24:34;;;;;;;7.35;5.63;;;13.90;88.70;;;;;;6182679;23;20037;-65
2021/05/25 08:27:00;;;;;;;5.25;4.60;;;14.10;87.80;;;;;;6156187;23;20192;-64
2021/05/25 08:29:25;;;;;;;7.72;5.18;;;14.10;87.90;;;;;;6183385;23;20100;-64
2021/05/25 08:31:51;;;;;;;6.03;4.82;;;14.10;87.50;;;;;;6182763;23;20017;-65
2021/05/25 08:34:16;;;;;;;6.47;4.88;;;14.10;87.50;;;;;;6155959;23;20001;-65
2021/05/25 08:36:42;;;;;;;5.30;4.10;;;14.10;88.20;;;;;;6182866;23;20004;-66
2021/05/25 08:39:07;;;;;;;4.47;4.10;;;14.10;87.70;;;;;;6155867;23;20108;-64
2021/05/25 08:41:35;;;;;;;6.30;4.10;;;14.30;88.00;;;;;;6182636;23;20001;-65
2021/05/25 08:44:01;;;;;;;4.55;3.03;;;14.50;86.70;;;;;;6182753;23;20001;-66
2021/05/25 08:46:27;;;;;;;5.97;3.72;;;14.70;85.40;;;;;;6182641;23;20017;-65
2021/05/25 08:48:54;;;;;;;5.65;3.10;;;14.70;84.90;;;;;;6182751;23;20048;-64
2021/05/25 08:51:19;;;;;;;5.50;2.92;;;14.60;85.00;;;;;;6183209;23;20020;-65
2021/05/25 08:53:45;;;;;;;6.00;2.38;;;14.40;84.40;;;;;;6182055;23;20326;-66
2021/05/25 08:56:11;;;;;;;3.08;1.90;;;14.20;84.60;;;;;;6156575;23;20060;-65
2021/05/25 08:58:36;;;;;;;6.95;2.15;;;14.00;85.50;;;;;;6182612;23;20418;-66
2021/05/25 09:01:02;;;;;;;7.32;2.58;;;14.00;85.40;;;;;;6181756;23;20286;-67
2021/05/25 09:03:30;;;;;;;5.70;1.83;;;14.00;86.20;;;;;;6182875;23;20064;-66
2021/05/25 09:06:07;;;;;;;4.05;1.98;;;14.30;85.80;;;;;;6183151;23;20012;-63
2021/05/25 09:08:34;;;;;;;9.45;2.75;;;14.50;85.20;;;;;;6181966;23;20005;-65
2021/05/25 09:11:08;;;;;;;7.13;2.30;;;14.80;84.40;;;;;;6182701;23;20120;-65
2021/05/25 09:13:34;;;;;;;6.75;2.50;;;15.00;82.30;;;;;;6182402;23;20330;-67
2021/05/25 09:16:02;;;;;;;5.45;2.50;;;14.90;81.40;;;;;;6182223;23;20378;-65
2021/05/25 09:18:30;;;;;;;2.53;1.13;;;14.50;80.20;;;;;;6156838;23;20005;-63
2021/05/25 09:21:02;;;;;;;3.90;1.50;;;14.00;78.90;;;;;;6155963;23;20429;-64
2021/05/25 09:23:34;;;;;;;2.60;0.90;;;13.60;80.20;;;;;;6182173;23;20321;-63
2021/05/25 09:26:07;;;;;;;2.38;1.10;;;13.20;81.50;;;;;;6182666;23;20327;-63
2021/05/25 09:28:33;;;;;;;2.60;1.30;;;13.00;83.10;;;;;;6181797;23;20001;-64
2021/05/25 09:30:59;;;;;;;3.13;1.75;;;12.80;84.90;;;;;;6182509;23;20013;-63
2021/05/25 09:33:26;;;;;;;3.50;1.30;;;12.60;87.40;;;;;;6182955;23;20055;-64
2021/05/25 09:35:52;;;;;;;5.05;1.40;;;12.50;89.00;;;;;;6155346;23;20444;-64
2021/05/25 09:38:21;;;;;;;3.22;1.67;;;12.50;90.00;;;;;;6182589;23;20001;-66
2021/05/25 09:40:49;;;;;;;3.58;1.67;;;12.60;90.40;;;;;;6182359;23;20032;-66
2021/05/25 09:43:29;;;;;;;5.75;1.40;;;12.70;90.30;;;;;;6181972;23;20029;-66
2021/05/25 09:45:54;;;;;;;4.85;1.58;;;12.80;90.70;;;;;;6182436;23;20088;-65
2021/05/25 09:48:21;;;;;;;3.35;1.80;;;12.90;90.70;;;;;;6156813;23;20374;-66
2021/05/25 09:50:47;;;;;;;4.78;1.67;;;12.90;91.10;;;;;;6181547;23;20019;-66
2021/05/25 09:53:28;;;;;;;7.30;2.15;;;12.90;91.00;;;;;;6182372;23;20033;-64
2021/05/25 09:56:04;;;;;;;4.57;2.08;;;13.00;91.00;;;;;;6182437;23;20445;-65
2021/05/25 09:58:32;;;;;;;3.90;1.90;;;13.00;91.30;;;;;;6182104;23;20415;-67
2021/05/25 10:01:03;;;;;;;6.03;2.20;;;13.10;91.10;;;;;;6182971;23;20048;-65
2021/05/25 10:03:31;;;;;;;7.30;2.22;;;13.20;91.00;;;;;;6182677;23;20007;-64
2021/05/25 10:06:01;;;;;;;4.85;2.10;;;13.50;91.20;;;;;;6182532;23;20009;-67
2021/05/25 10:08:29;;;;;;;5.82;2.15;;;13.70;91.30;;;;;;6182758;23;20411;-65
2021/05/25 10:10:57;;;;;;;7.88;2.97;;;14.00;90.80;;;;;;6181464;23;20009;-64
2021/05/25 10:13:25;;;;;;;7.05;2.63;;;14.10;90.30;;;;;;6183538;23;20004;-65
2021/05/25 10:15:52;;;;;;;6.38;2.72;;;14.20;90.40;;;;;;6184095;23;20001;-65
2021/05/25 10:20:55;;;;;;;11.75;4.00;;;14.60;90.20;;;;;;6194796;23;20005;-67
2021/05/25 10:23:21;;;;;;;7.10;2.80;;;14.90;89.80;;;;;;6180609;23;20023;-67
2021/05/25 10:25:51;;;;;;;9.82;3.58;;;15.00;88.70;;;;;;6183700;23;20005;-66
2021/05/25 10:28:17;;;;;;;8.18;3.38;;;14.90;87.60;;;;;;6157863;23;20083;-64
2021/05/25 10:30:49;;;;;;;11.45;3.50;;;14.60;88.50;;;;;;6183201;23;20044;-64
2021/05/25 10:33:20;;;;;;;8.32;3.20;;;14.30;89.70;;;;;;6184313;23;20005;-67
2021/05/25 10:35:46;;;;;;;7.72;3.50;;;14.30;90.30;;;;;;6157642;23;20347;-64
2021/05/25 10:38:12;;;;;;;7.45;3.28;;;14.30;90.20;;;;;;6183414;23;20031;-63
2021/05/25 10:40:45;;;;;;;4.68;2.35;;;14.10;88.60;;;;;;6184037;23;20013;-62
2021/05/25 10:43:32;;;;;;;6.97;2.50;;;13.90;86.50;;;;;;6184242;23;20008;-64
2021/05/25 10:46:10;;;;;;;8.38;2.72;;;13.60;86.70;;;;;;6183421;23;20422;-65
2021/05/25 10:49:16;;;;;;;6.30;2.78;;;13.30;86.90;;;;;;6183797;23;20445;-64
2021/05/25 10:51:48;;;;;;;6.60;2.90;;;13.10;89.00;;;;;;6182700;23;20402;-65
2021/05/25 10:54:30;;;;;;;6.40;2.72;;;13.00;89.20;;;;;;6183688;23;20005;-63
2021/05/25 10:57:00;;;;;;;6.47;2.72;;;13.00;89.70;;;;;;6184068;23;20012;-65
2021/05/25 10:59:26;;;;;;;7.57;3.63;;;13.10;89.80;;;;;;6183580;23;20011;-64
2021/05/25 11:02:00;;;;;;;9.18;4.40;;;13.20;90.20;;;;;;6183701;23;20089;-65
2021/05/25 11:04:36;;;;;;;7.80;4.25;;;13.40;90.10;;;;;;6184001;23;20541;-66
2021/05/25 11:07:38;;;;;;;7.93;3.20;;;13.70;89.70;;;;;;6182965;23;20326;-66
2021/05/25 11:10:53;;;;;;;8.25;3.50;;;14.00;89.20;;;;;;6183912;23;20005;-66
2021/05/25 11:13:28;;;;;;;8.63;2.75;;;14.60;88.90;;;;;;6091954;23;20042;-65
2021/05/25 11:16:14;;;;;;;4.30;2.10;;;15.00;86.40;;;;;;6092499;23;20006;-66
2021/05/25 11:24:36;;;;;;;8.60;2.00;;;15.60;82.30;;;;;;6183212;23;20028;-64
2021/05/25 11:27:10;;;;;;;4.43;2.03;;;15.90;78.30;;;;;;6182855;23;20005;-64
2021/05/25 11:29:49;;;;;;;5.90;1.88;;;16.10;73.90;;;;;;6183100;23;20282;-64
2021/05/25 11:32:17;;;;;;;7.15;1.70;;;16.20;73.60;;;;;;6157047;23;20482;-65
2021/05/25 11:34:43;;;;;;;3.78;1.50;;;16.20;72.30;;;;;;6182667;23;20001;-66
2021/05/25 11:37:13;;;;;;;6.05;1.63;;;16.20;71.70;;;;;;6183374;23;20350;-64
2021/05/25 11:39:39;;;;;;;6.40;2.00;;;16.20;71.80;;;;;;6183314;23;20347;-65
2021/05/25 11:42:07;;;;;;;5.07;1.80;;;16.20;70.30;;;;;;6182383;23;20001;-64
2021/05/25 11:44:39;;;;;;;8.43;1.80;;;16.20;69.60;;;;;;6183000;23;19997;-66
2021/05/25 11:47:06;;;;;;;5.72;1.95;;;16.30;71.50;;;;;;6183367;23;20005;-66
2021/05/25 11:49:39;;;;;;;3.58;1.55;;;16.30;69.80;;;;;;6178167;23;20045;-67
2021/05/25 11:52:17;;;;;;;6.72;2.20;;;16.00;69.90;;;;;;6182737;23;20020;-65
2021/05/25 11:54:44;;;;;;;5.72;1.70;;;15.70;71.80;;;;;;6155562;23;20080;-65
2021/05/25 11:57:34;;;;;;;5.50;1.38;;;15.70;71.80;;;;;;6183347;23;20005;-65
2021/05/25 12:00:07;;;;;;;4.45;1.92;;;15.70;69.80;;;;;;6183225;23;20091;-64
2021/05/25 12:02:34;;;;;;;4.35;1.63;;;15.80;69.60;;;;;;6182167;23;20005;-64
2021/05/25 12:05:18;;;;;;;4.57;1.73;;;15.80;70.10;;;;;;6156798;23;20007;-68
2021/05/25 12:07:47;;;;;;;5.68;2.05;;;15.90;70.10;;;;;;6182666;23;20032;-66
2021/05/25 12:10:15;;;;;;;5.05;2.05;;;16.00;70.80;;;;;;6182264;23;20008;-68
2021/05/25 12:12:43;;;;;;;5.85;1.75;;;16.30;69.60;;;;;;6181951;23;20009;-69
2021/05/25 12:15:18;;;;;;;4.50;1.48;;;16.50;68.30;;;;;;6182467;23;20001;-67
2021/05/25 12:17:49;;;;;;;6.53;1.88;;;16.70;67.10;;;;;;6182412;23;20005;-65
2021/05/25 12:20:19;;;;;;;;;;;16.90;66.70;;;;;;6156275;23;20438;-65
2021/05/25 12:22:47;;;;;;;7.25;1.30;;;17.00;64.70;;;;;;6181374;23;19994;-65
2021/05/25 12:25:26;;;;;;;4.45;1.42;;;16.90;62.40;;;;;;6182562;23;20009;-66
2021/05/25 12:28:13;;;;;;;4.38;1.20;;;16.80;63.40;;;;;;6182333;23;20489;-67
2021/05/25 12:30:56;;;;;;;5.40;1.10;;;16.70;61.00;;;;;;6181168;23;20346;-65
2021/05/25 12:33:26;;;;;;;3.97;0.93;;;16.70;61.90;;;;;;6156166;23;19997;-67
2021/05/25 12:35:52;;;;;;;5.63;1.42;;;16.50;60.90;;;;;;6181921;23;20467;-67
2021/05/25 12:38:20;;;;;;;2.58;1.40;;;16.30;61.80;;;;;;6181887;23;20005;-67
2021/05/25 12:40:57;;;;;;;4.10;1.23;;;16.10;62.60;;;;;;6182551;23;20009;-68
2021/05/25 12:43:24;;;;;;;4.13;1.20;;;15.90;65.10;;;;;;6182376;23;20087;-65
2021/05/25 12:45:52;;;;;;;3.75;1.35;;;15.90;65.90;;;;;;6181551;23;20009;-66
2021/05/25 12:48:31;;;;;;;3.72;1.50;;;15.70;66.60;;;;;;6181642;23;20024;-66
2021/05/25 12:50:56;;;;;;;1.92;1.27;;;15.50;67.70;;;;;;6182086;23;20012;-66
2021/05/25 12:53:22;;;;;;;2.22;1.40;;;15.30;68.00;;;;;;6182737;23;20032;-66
2021/05/25 12:55:54;;;;;;;2.45;1.48;;;15.20;68.60;;;;;;6182738;23;20032;-66
2021/05/25 12:58:43;;;;;;;4.55;1.40;;;15.20;68.10;;;;;;6181761;23;19997;-63
2021/05/25 13:01:26;;;;;;;3.53;1.20;;;15.30;67.30;;;;;;6182321;23;20004;-64
2021/05/25 13:04:16;;;;;;;6.85;1.60;;;15.60;67.50;;;;;;6182049;23;20001;-65